createdAt,value
2023-04-10T00:00:16.443Z,12.58
2023-04-10T00:02:48.740Z,12.58
2023-04-10T00:05:19.395Z,12.53
2023-04-10T00:46:57.890Z,12.13
2023-04-10T00:49:27.311Z,12.11
2023-04-10T00:52:14.643Z,12.12
2023-04-10T01:40:42.513Z,12.44
2023-04-10T01:43:20.521Z,12.42
2023-04-10T01:45:53.040Z,12.45
2023-04-10T01:48:21.992Z,12.42
2023-04-10T01:50:50.633Z,12.38
2023-04-10T01:53:20.382Z,12.31
2023-04-10T01:55:49.612Z,12.30
2023-04-10T01:58:18.628Z,12.29
2023-04-10T02:00:48.047Z,12.31
2023-04-10T02:22:01.212Z,12.31
2023-04-10T02:24:31.352Z,12.27
2023-04-10T02:27:14.211Z,12.19
2023-04-10T02:29:43.430Z,12.15
2023-04-10T02:45:19.292Z,12.17
2023-04-10T02:48:29.343Z,12.17
2023-04-10T03:33:35.416Z,12.71
2023-04-10T03:39:59.296Z,12.89
2023-04-10T03:43:08.045Z,13.15
2023-04-10T03:45:38.229Z,13.22
2023-04-10T03:48:07.761Z,13.29
2023-04-10T03:50:43.287Z,13.38
2023-04-10T03:53:13.974Z,13.38
2023-04-10T03:55:45.074Z,13.47
2023-04-10T04:08:36.361Z,14.13
2023-04-10T04:12:19.294Z,14.31
2023-04-10T04:31:34.471Z,14.72
2023-04-10T04:38:03.239Z,14.82
2023-04-10T04:41:33.275Z,14.83
2023-04-10T04:44:44.861Z,15.06
2023-04-10T04:54:36.373Z,15.82
2023-04-10T04:57:31.272Z,15.95
2023-04-10T05:00:17.436Z,16.01
2023-04-10T05:03:10.072Z,15.98
2023-04-10T05:06:06.446Z,15.93
2023-04-10T05:09:39.779Z,16.15
2023-04-10T05:13:04.719Z,16.14
2023-04-10T05:23:11.505Z,17.01
2023-04-10T05:26:11.533Z,17.60
2023-04-10T05:29:09.697Z,18.15
2023-04-10T05:31:58.974Z,18.42
2023-04-10T05:34:59.939Z,18.62
2023-04-10T05:37:49.022Z,18.57
2023-04-10T05:40:33.173Z,18.90
2023-04-10T05:43:26.324Z,19.48
2023-04-10T05:46:26.549Z,19.73
2023-04-10T05:49:17.979Z,20.28
2023-04-10T05:52:09.756Z,20.67
2023-04-10T05:54:44.637Z,21.24
2023-04-10T05:57:32.474Z,21.79
2023-04-10T06:00:20.061Z,21.85
2023-04-10T06:03:08.016Z,22.03
2023-04-10T06:05:46.787Z,22.00
2023-04-10T06:08:17.538Z,22.51
2023-04-10T06:10:47.538Z,22.67
2023-04-10T06:13:17.457Z,22.63
2023-04-10T06:15:47.669Z,22.69
2023-04-10T06:18:17.791Z,22.91
2023-04-10T06:20:46.697Z,23.10
2023-04-10T06:23:19.056Z,23.26
2023-04-10T06:25:48.106Z,23.49
2023-04-10T06:28:17.373Z,23.84
2023-04-10T06:30:56.688Z,23.95
2023-04-10T06:33:32.288Z,24.17
2023-04-10T06:36:01.470Z,24.19
2023-04-10T06:38:34.100Z,24.34
2023-04-10T06:41:03.138Z,24.48
2023-04-10T06:43:41.445Z,24.70
2023-04-10T06:46:10.790Z,24.96
2023-04-10T06:48:40.320Z,25.05
2023-04-10T06:51:09.573Z,25.22
2023-04-10T06:53:38.529Z,25.32
2023-04-10T06:56:08.498Z,25.60
2023-04-10T06:58:48.373Z,26.12
2023-04-10T07:01:17.978Z,26.25
2023-04-10T07:03:46.523Z,26.36
2023-04-10T07:06:20.507Z,26.23
2023-04-10T07:08:56.449Z,26.30
2023-04-10T07:11:25.627Z,26.58
2023-04-10T07:13:58.623Z,26.62
2023-04-10T07:16:29.678Z,26.69
2023-04-10T07:18:59.086Z,26.67
2023-04-10T07:21:28.061Z,26.75
2023-04-10T07:23:57.334Z,26.68
2023-04-10T07:26:26.906Z,26.86
2023-04-10T07:28:56.516Z,27.01
2023-04-10T07:31:26.444Z,26.64
2023-04-10T07:33:55.010Z,26.66
2023-04-10T07:36:23.734Z,26.41
2023-04-10T07:38:54.328Z,26.55
2023-04-10T07:41:30.064Z,26.45
2023-04-10T07:44:02.504Z,26.28
2023-04-10T07:46:52.693Z,25.64
2023-04-10T07:49:25.408Z,25.60
2023-04-10T07:51:55.141Z,25.95
2023-04-10T07:54:27.149Z,26.15
2023-04-10T07:56:57.653Z,26.29
2023-04-10T07:59:27.691Z,26.17
2023-04-10T08:01:56.383Z,26.14
2023-04-10T08:04:26.106Z,25.87
2023-04-10T08:06:55.765Z,25.79
2023-04-10T08:09:24.572Z,26.10
2023-04-10T08:11:55.076Z,26.21
2023-04-10T08:14:23.970Z,25.95
2023-04-10T08:16:54.765Z,25.99
2023-04-10T08:19:24.632Z,25.80
2023-04-10T08:21:53.631Z,25.75
2023-04-10T08:24:29.516Z,25.82
2023-04-10T08:27:18.135Z,25.79
2023-04-10T08:29:47.748Z,25.76
2023-04-10T08:32:16.439Z,25.93
2023-04-10T08:34:45.210Z,25.79
2023-04-10T08:37:15.927Z,25.42
2023-04-10T08:39:45.739Z,25.31
2023-04-10T08:42:14.756Z,25.55
2023-04-10T08:44:43.787Z,25.48
2023-04-10T08:47:12.419Z,25.21
2023-04-10T08:50:12.192Z,25.09
2023-04-10T08:52:44.044Z,24.86
2023-04-10T08:55:18.256Z,25.22
2023-04-10T08:57:54.367Z,25.68
2023-04-10T09:00:31.882Z,25.68
2023-04-10T09:03:05.139Z,25.69
2023-04-10T09:05:35.685Z,25.75
2023-04-10T09:08:05.180Z,25.78
2023-04-10T09:10:36.042Z,25.63
2023-04-10T09:13:05.280Z,25.73
2023-04-10T09:15:55.709Z,25.68
2023-04-10T09:18:55.220Z,25.61
2023-04-10T09:21:24.929Z,25.65
2023-04-10T09:24:00.929Z,25.25
2023-04-10T09:26:34.028Z,25.09
2023-04-10T09:29:04.692Z,25.04
2023-04-10T09:31:34.884Z,25.21
2023-04-10T09:34:18.251Z,25.09
2023-04-10T09:37:01.609Z,24.76
2023-04-10T09:39:44.412Z,24.89
2023-04-10T09:42:14.295Z,24.79
2023-04-10T09:44:43.333Z,24.60
2023-04-10T09:47:15.751Z,24.37
2023-04-10T09:49:52.774Z,23.98
2023-04-10T09:52:28.573Z,23.94
2023-04-10T09:54:58.722Z,24.19
2023-04-10T09:57:30.806Z,24.38
2023-04-10T10:00:07.324Z,24.46
2023-04-10T10:02:39.433Z,24.22
2023-04-10T10:05:10.985Z,24.01
2023-04-10T10:07:42.187Z,23.84
2023-04-10T10:10:12.461Z,22.98
2023-04-10T10:12:46.295Z,22.81
2023-04-10T10:15:40.894Z,22.75
2023-04-10T10:18:23.370Z,22.88
2023-04-10T10:20:52.415Z,23.07
2023-04-10T10:23:27.277Z,22.96
2023-04-10T10:26:02.468Z,22.97
2023-04-10T10:28:34.962Z,22.67
2023-04-10T10:31:05.104Z,22.76
2023-04-10T10:33:36.801Z,22.75
2023-04-10T10:36:06.013Z,22.71
2023-04-10T10:38:39.171Z,22.44
2023-04-10T10:41:21.750Z,22.26
2023-04-10T10:44:00.579Z,22.12
2023-04-10T10:46:50.610Z,21.95
2023-04-10T10:50:06.079Z,21.56
2023-04-10T10:52:57.713Z,21.48
2023-04-10T10:55:27.649Z,21.41
2023-04-10T10:57:59.097Z,21.30
2023-04-10T11:00:50.829Z,20.94
2023-04-10T11:03:29.140Z,20.86
2023-04-10T11:06:03.294Z,20.82
2023-04-10T11:08:44.619Z,20.65
2023-04-10T11:11:28.164Z,20.66
2023-04-10T11:14:13.305Z,20.56
2023-04-10T11:16:47.000Z,20.61
2023-04-10T11:19:24.606Z,20.66
2023-04-10T11:22:15.809Z,20.60
2023-04-10T11:24:54.474Z,20.54
2023-04-10T11:27:40.667Z,20.53
2023-04-10T11:30:28.061Z,20.62
2023-04-10T11:32:58.177Z,20.52
2023-04-10T11:35:28.126Z,20.54
2023-04-10T11:38:16.789Z,20.61
2023-04-10T11:41:02.413Z,20.73
2023-04-10T11:43:31.824Z,20.53
2023-04-10T11:46:05.031Z,20.53
2023-04-10T11:48:33.812Z,20.70
2023-04-10T11:51:09.810Z,20.63
2023-04-10T11:53:39.438Z,20.52
2023-04-10T11:56:19.524Z,20.51
2023-04-10T11:58:51.331Z,20.56
2023-04-10T12:01:21.918Z,20.72
2023-04-10T12:03:50.759Z,20.77
2023-04-10T12:06:22.148Z,20.93
2023-04-10T12:08:51.384Z,20.90
2023-04-10T12:11:26.849Z,20.80
2023-04-10T12:13:58.311Z,20.92
2023-04-10T12:16:27.591Z,21.06
2023-04-10T12:19:03.546Z,21.12
2023-04-10T12:21:32.700Z,21.19
2023-04-10T12:24:02.219Z,21.21
2023-04-10T12:26:31.360Z,21.15
2023-04-10T12:28:59.911Z,21.13
2023-04-10T12:31:34.376Z,21.03
2023-04-10T12:34:05.565Z,20.97
2023-04-10T12:36:35.374Z,20.93
2023-04-10T12:39:05.529Z,20.99
2023-04-10T12:41:34.464Z,20.93
2023-04-10T12:44:13.171Z,20.95
2023-04-10T12:46:42.174Z,21.01
2023-04-10T12:49:14.838Z,20.79
2023-04-10T12:51:46.950Z,20.91
2023-04-10T12:54:33.419Z,21.02
2023-04-10T12:57:07.378Z,20.87
2023-04-10T12:59:36.224Z,20.76
2023-04-10T13:02:04.802Z,20.49
2023-04-10T13:04:34.704Z,20.58
2023-04-10T13:07:03.556Z,20.59
2023-04-10T13:09:32.958Z,20.67
2023-04-10T13:12:09.273Z,20.65
2023-04-10T13:14:38.815Z,20.66
2023-04-10T13:17:07.476Z,20.64
2023-04-10T13:19:40.752Z,20.69
2023-04-10T13:22:09.354Z,20.80
2023-04-10T13:24:38.618Z,20.71
2023-04-10T13:27:38.843Z,20.72
2023-04-10T13:30:08.877Z,20.64
2023-04-10T13:32:37.796Z,20.71
2023-04-10T13:35:07.040Z,20.70
2023-04-10T13:37:36.933Z,20.67
2023-04-10T13:40:07.689Z,20.61
2023-04-10T13:42:39.307Z,20.69
2023-04-10T13:45:09.793Z,20.80
2023-04-10T13:47:38.358Z,20.82
2023-04-10T13:50:08.102Z,20.64
2023-04-10T13:52:42.368Z,20.65
2023-04-10T13:55:11.741Z,20.53
2023-04-10T13:57:40.570Z,20.49
2023-04-10T14:00:10.458Z,20.54
2023-04-10T14:02:56.115Z,20.54
2023-04-10T14:05:25.360Z,20.44
2023-04-10T14:07:57.109Z,20.36
2023-04-10T14:10:25.976Z,20.38
2023-04-10T14:12:54.518Z,20.35
2023-04-10T14:15:43.004Z,20.39
2023-04-10T14:18:11.718Z,20.42
2023-04-10T14:20:42.594Z,20.39
2023-04-10T14:23:17.808Z,20.33
2023-04-10T14:25:46.805Z,20.26
2023-04-10T14:28:20.365Z,20.15
2023-04-10T14:30:49.894Z,20.12
2023-04-10T14:33:22.534Z,20.12
2023-04-10T14:35:52.364Z,20.13
2023-04-10T14:38:21.031Z,20.16
2023-04-10T14:40:50.961Z,20.10
2023-04-10T14:43:19.775Z,20.08
2023-04-10T14:45:49.791Z,20.12
2023-04-10T14:48:20.085Z,20.13
2023-04-10T14:50:49.756Z,20.00
2023-04-10T14:53:19.293Z,19.91
2023-04-10T14:55:48.064Z,19.90
2023-04-10T14:58:16.707Z,19.82
2023-04-10T15:00:45.526Z,19.75
2023-04-10T15:03:14.181Z,19.62
2023-04-10T15:06:00.295Z,19.64
2023-04-10T15:08:29.139Z,19.61
2023-04-10T15:10:57.621Z,19.63
2023-04-10T15:13:26.606Z,19.65
2023-04-10T15:15:55.631Z,19.61
2023-04-10T15:18:25.828Z,19.53
2023-04-10T15:20:56.128Z,19.45
2023-04-10T15:23:25.700Z,19.39
2023-04-10T15:25:59.781Z,19.40
2023-04-10T15:28:29.896Z,19.41
2023-04-10T15:30:58.190Z,19.39
2023-04-10T15:33:28.674Z,19.31
2023-04-10T15:35:57.184Z,19.29
2023-04-10T15:38:29.059Z,19.28
2023-04-10T15:40:58.239Z,19.17
2023-04-10T15:43:28.172Z,19.22
2023-04-10T15:46:02.110Z,19.15
2023-04-10T15:48:31.125Z,19.16
2023-04-10T15:51:03.319Z,19.12
2023-04-10T15:53:32.392Z,19.07
2023-04-10T15:56:00.997Z,19.06
2023-04-10T15:58:31.207Z,19.02
2023-04-10T16:00:59.940Z,18.97
2023-04-10T16:03:30.197Z,18.96
2023-04-10T16:05:59.092Z,18.91
2023-04-10T16:08:27.840Z,18.84
2023-04-10T16:10:56.957Z,18.80
2023-04-10T16:13:25.558Z,18.76
2023-04-10T16:15:54.421Z,18.72
2023-04-10T16:18:22.872Z,18.69
2023-04-10T16:20:51.637Z,18.70
2023-04-10T16:23:20.675Z,18.65
2023-04-10T16:25:52.022Z,18.54
2023-04-10T16:28:23.036Z,18.48
2023-04-10T16:30:51.377Z,18.44
2023-04-10T16:33:26.692Z,18.39
2023-04-10T16:35:56.182Z,18.33
2023-04-10T16:38:24.957Z,18.28
2023-04-10T16:40:53.735Z,18.26
2023-04-10T16:43:23.737Z,18.16
2023-04-10T16:45:57.721Z,18.03
2023-04-10T16:48:27.534Z,17.98
2023-04-10T16:50:55.976Z,17.89
2023-04-10T16:53:27.520Z,17.80
2023-04-10T16:56:02.117Z,17.67
2023-04-10T16:58:41.256Z,17.72
2023-04-10T17:01:18.210Z,17.65
2023-04-10T17:03:47.930Z,17.78
2023-04-10T17:06:16.702Z,17.72
2023-04-10T17:08:46.650Z,17.68
2023-04-10T17:11:16.253Z,17.63
2023-04-10T17:13:46.102Z,17.62
2023-04-10T17:16:16.458Z,17.62
2023-04-10T17:18:46.713Z,17.58
2023-04-10T17:21:15.760Z,17.58
2023-04-10T17:23:49.582Z,17.61
2023-04-10T17:26:22.193Z,17.59
2023-04-10T17:28:51.517Z,17.53
2023-04-10T17:31:21.647Z,17.48
2023-04-10T17:33:50.244Z,17.42
2023-04-10T17:36:19.133Z,17.34
2023-04-10T17:38:48.033Z,17.28
2023-04-10T17:41:16.868Z,17.24
2023-04-10T17:43:47.449Z,17.21
2023-04-10T17:46:16.367Z,17.20
2023-04-10T17:48:51.872Z,17.16
2023-04-10T17:51:21.061Z,17.14
2023-04-10T17:53:49.870Z,17.12
2023-04-10T17:56:19.821Z,17.08
2023-04-10T17:58:56.218Z,17.02
2023-04-10T18:01:27.747Z,16.98
2023-04-10T18:04:00.186Z,16.95
2023-04-10T18:06:29.381Z,16.94
2023-04-10T18:08:58.300Z,16.92
2023-04-10T18:11:27.478Z,16.87
2023-04-10T18:13:56.204Z,16.82
2023-04-10T18:16:25.056Z,16.70
2023-04-10T18:18:54.397Z,16.68
2023-04-10T18:21:27.012Z,16.74
2023-04-10T18:23:55.637Z,16.66
2023-04-10T18:26:24.681Z,16.70
2023-04-10T18:28:55.248Z,16.71
2023-04-10T18:31:24.261Z,16.65
2023-04-10T18:34:06.472Z,16.51
2023-04-10T18:36:36.286Z,16.53
2023-04-10T18:39:05.105Z,16.50
2023-04-10T18:41:35.470Z,16.44
2023-04-10T18:44:05.745Z,16.44
2023-04-10T18:46:42.679Z,16.42
2023-04-10T18:49:12.813Z,16.43
2023-04-10T18:51:41.434Z,16.34
2023-04-10T18:54:11.115Z,16.29
2023-04-10T18:56:40.003Z,16.33
2023-04-10T18:59:10.673Z,16.25
2023-04-10T19:01:40.911Z,16.17
2023-04-10T19:04:09.663Z,16.11
2023-04-10T19:06:41.231Z,16.14
2023-04-10T19:09:10.361Z,16.11
2023-04-10T19:11:39.887Z,16.08
2023-04-10T19:14:15.728Z,16.06
2023-04-10T19:16:44.737Z,16.01
2023-04-10T19:19:13.834Z,15.97
2023-04-10T19:21:42.725Z,15.89
2023-04-10T19:24:12.593Z,15.88
2023-04-10T19:26:42.635Z,15.89
2023-04-10T19:29:13.716Z,15.85
2023-04-10T19:31:51.476Z,15.67
2023-04-10T19:34:21.778Z,15.71
2023-04-10T19:36:51.068Z,15.69
2023-04-10T19:39:19.722Z,15.63
2023-04-10T19:41:49.136Z,15.61
2023-04-10T19:44:18.566Z,15.62
2023-04-10T19:46:55.067Z,15.54
2023-04-10T19:49:24.712Z,15.49
2023-04-10T19:51:53.773Z,15.51
2023-04-10T19:54:22.444Z,15.53
2023-04-10T19:56:51.157Z,15.46
2023-04-10T19:59:26.362Z,15.41
2023-04-10T20:01:55.791Z,15.40
2023-04-10T20:04:24.872Z,15.31
2023-04-10T20:06:57.824Z,15.30
2023-04-10T20:09:26.302Z,15.33
2023-04-10T20:11:55.233Z,15.35
2023-04-10T20:14:25.514Z,15.33
2023-04-10T20:16:54.137Z,15.27
2023-04-10T20:19:22.722Z,15.28
2023-04-10T20:21:53.294Z,15.26
2023-04-10T20:24:21.929Z,15.23
2023-04-10T20:26:50.721Z,15.21
2023-04-10T20:29:19.220Z,15.18
2023-04-10T20:31:47.827Z,15.16
2023-04-10T20:34:16.529Z,15.13
2023-04-10T20:36:45.187Z,15.10
2023-04-10T20:39:13.671Z,15.11
2023-04-10T20:41:42.352Z,15.13
2023-04-10T20:44:10.929Z,15.03
2023-04-10T20:46:40.554Z,14.93
2023-04-10T20:49:16.140Z,14.91
2023-04-10T20:51:47.379Z,14.86
2023-04-10T20:54:16.103Z,14.84
2023-04-10T20:56:44.703Z,14.78
2023-04-10T20:59:13.824Z,14.73
2023-04-10T21:01:42.621Z,14.67
2023-04-10T21:04:11.616Z,14.64
2023-04-10T21:06:40.204Z,14.62
2023-04-10T21:09:08.798Z,14.61
2023-04-10T21:11:37.933Z,14.60
2023-04-10T21:14:10.061Z,14.57
2023-04-10T21:16:42.561Z,14.53
2023-04-10T21:19:11.474Z,14.47
2023-04-10T21:21:45.797Z,14.40
2023-04-10T21:24:14.467Z,14.37
2023-04-10T21:26:43.026Z,14.29
2023-04-10T21:29:11.557Z,14.30
2023-04-10T21:31:40.265Z,14.24
2023-04-10T21:34:16.843Z,14.19
2023-04-10T21:36:45.608Z,14.16
2023-04-10T21:39:14.317Z,14.09
2023-04-10T21:41:43.325Z,13.92
2023-04-10T21:44:12.919Z,13.99
2023-04-10T21:46:41.846Z,14.02
2023-04-10T21:49:10.731Z,13.95
2023-04-10T21:51:40.709Z,13.88
2023-04-10T21:54:09.511Z,13.87
2023-04-10T21:56:41.058Z,13.83
2023-04-10T21:59:09.548Z,13.73
2023-04-10T22:01:41.861Z,13.68
2023-04-10T22:04:10.658Z,13.65
2023-04-10T22:06:39.278Z,13.56
2023-04-10T22:09:07.757Z,13.51
2023-04-10T22:11:37.356Z,13.47
2023-04-10T22:14:17.996Z,13.49
2023-04-10T22:16:48.685Z,13.45
2023-04-10T22:19:17.280Z,13.40
2023-04-10T22:21:52.657Z,13.30
2023-04-10T22:24:21.519Z,13.23
2023-04-10T22:26:50.135Z,13.22
2023-04-10T22:29:19.645Z,13.22
2023-04-10T22:31:48.534Z,13.16
2023-04-10T22:34:17.597Z,13.07
2023-04-10T22:36:46.630Z,13.00
2023-04-10T22:39:15.413Z,13.01
2023-04-10T22:41:45.311Z,13.04
2023-04-10T22:44:14.314Z,13.03
2023-04-10T22:46:49.578Z,12.97
2023-04-10T22:49:18.260Z,12.91
2023-04-10T22:51:46.894Z,12.96
2023-04-10T22:54:16.767Z,12.97
2023-04-10T22:56:45.722Z,12.96
2023-04-10T22:59:14.225Z,12.96
2023-04-10T23:01:45.324Z,12.90
2023-04-10T23:04:14.121Z,12.86
2023-04-10T23:06:44.657Z,12.89
2023-04-10T23:09:13.312Z,12.87
2023-04-10T23:11:48.155Z,12.90
2023-04-10T23:14:18.412Z,12.91
2023-04-10T23:16:47.227Z,12.91
2023-04-10T23:19:16.077Z,12.85
2023-04-10T23:21:44.611Z,12.80
2023-04-10T23:24:14.304Z,12.77
2023-04-10T23:26:43.371Z,12.66
2023-04-10T23:29:12.160Z,12.60
2023-04-10T23:31:40.829Z,12.56
2023-04-10T23:34:10.805Z,12.58
2023-04-10T23:36:40.703Z,12.52
2023-04-10T23:39:09.241Z,12.54
2023-04-10T23:41:38.150Z,12.52
2023-04-10T23:44:07.127Z,12.53
2023-04-10T23:46:35.946Z,12.54
2023-04-10T23:49:05.268Z,12.46
2023-04-10T23:51:34.695Z,12.48
2023-04-10T23:54:04.132Z,12.47
2023-04-10T23:56:32.942Z,12.42
2023-04-10T23:59:01.700Z,12.35
